sensor_id;sensor_type;location;lat;lon;timestamp;pressure;altitude;pressure_sealevel;temperature;humidity
14594;BME280;7383;52.354;9.756;2023-03-19T00:02:21;-12700.38;;;14.11;100.00
14594;BME280;7383;52.354;9.756;2023-03-19T00:04:47;-12700.81;;;14.13;100.00
14594;BME280;7383;52.354;9.756;2023-03-19T00:07:14;-12699.88;;;14.08;100.00
14594;BME280;7383;52.354;9.756;2023-03-19T00:09:41;-12699.88;;;14.08;100.00
14594;BME280;7383;52.354;9.756;2023-03-19T00:12:09;-12699.19;;;14.04;100.00
14594;BME280;7383;52.354;9.756;2023-03-19T00:14:36;-12697.88;;;13.96;100.00
14594;BME280;7383;52.354;9.756;2023-03-19T00:17:04;-12697.34;;;13.93;100.00
14594;BME280;7383;52.354;9.756;2023-03-19T00:19:31;-12696.31;;;13.87;100.00
14594;BME280;7383;52.354;9.756;2023-03-19T00:21:58;-12694.47;;;13.76;100.00
14594;BME280;7383;52.354;9.756;2023-03-19T00:24:26;-12693.78;;;13.72;100.00
14594;BME280;7383;52.354;9.756;2023-03-19T00:26:55;-12693.19;;;13.69;100.00
14594;BME280;7383;52.354;9.756;2023-03-19T00:29:22;-12693.97;;;13.73;100.00
14594;BME280;7383;52.354;9.756;2023-03-19T00:31:49;-12693.53;;;13.71;100.00
14594;BME280;7383;52.354;9.756;2023-03-19T00:34:17;-12693.78;;;13.72;100.00
14594;BME280;7383;52.354;9.756;2023-03-19T00:36:43;-12693.63;;;13.71;100.00
14594;BME280;7383;52.354;9.756;2023-03-19T00:39:10;-12693.19;;;13.69;100.00
14594;BME280;7383;52.354;9.756;2023-03-19T00:41:37;-12692.91;;;13.67;100.00
14594;BME280;7383;52.354;9.756;2023-03-19T00:44:03;-12692.47;;;13.65;100.00
14594;BME280;7383;52.354;9.756;2023-03-19T00:46:31;-12692.31;;;13.64;100.00
14594;BME280;7383;52.354;9.756;2023-03-19T00:48:57;-12691.97;;;13.62;100.00
14594;BME280;7383;52.354;9.756;2023-03-19T00:51:25;-12691.19;;;13.57;100.00
14594;BME280;7383;52.354;9.756;2023-03-19T00:53:52;-12690.66;;;13.54;100.00
14594;BME280;7383;52.354;9.756;2023-03-19T00:56:19;-12689.88;;;13.50;100.00
14594;BME280;7383;52.354;9.756;2023-03-19T00:58:46;-12689.28;;;13.46;100.00
14594;BME280;7383;52.354;9.756;2023-03-19T01:01:15;-12688.13;;;13.40;100.00
14594;BME280;7383;52.354;9.756;2023-03-19T01:03:42;-12688.41;;;13.41;100.00
14594;BME280;7383;52.354;9.756;2023-03-19T01:06:11;-12687.88;;;13.38;100.00
14594;BME280;7383;52.354;9.756;2023-03-19T01:08:46;-12687.63;;;13.37;100.00
14594;BME280;7383;52.354;9.756;2023-03-19T01:11:13;-12687.09;;;13.34;100.00
14594;BME280;7383;52.354;9.756;2023-03-19T01:13:41;-12686.41;;;13.29;100.00
14594;BME280;7383;52.354;9.756;2023-03-19T01:16:08;-12686.50;;;13.30;100.00
14594;BME280;7383;52.354;9.756;2023-03-19T01:18:35;-12686.13;;;13.28;100.00
14594;BME280;7383;52.354;9.756;2023-03-19T01:21:02;-12685.78;;;13.26;100.00
14594;BME280;7383;52.354;9.756;2023-03-19T01:23:29;-12685.78;;;13.26;100.00
14594;BME280;7383;52.354;9.756;2023-03-19T01:25:57;-12684.84;;;13.20;100.00
14594;BME280;7383;52.354;9.756;2023-03-19T01:28:24;-12684.31;;;13.17;100.00
14594;BME280;7383;52.354;9.756;2023-03-19T01:30:50;-12684.13;;;13.16;100.00
14594;BME280;7383;52.354;9.756;2023-03-19T01:33:17;-12683.97;;;13.15;100.00
14594;BME280;7383;52.354;9.756;2023-03-19T01:35:45;-12683.69;;;13.14;100.00
14594;BME280;7383;52.354;9.756;2023-03-19T01:38:13;-12683.63;;;13.13;100.00
14594;BME280;7383;52.354;9.756;2023-03-19T01:40:43;-12683.28;;;13.11;100.00
14594;BME280;7383;52.354;9.756;2023-03-19T01:43:16;-12682.66;;;13.08;100.00
14594;BME280;7383;52.354;9.756;2023-03-19T01:45:44;-12683.00;;;13.10;100.00
14594;BME280;7383;52.354;9.756;2023-03-19T01:48:18;-12682.56;;;13.07;100.00
14594;BME280;7383;52.354;9.756;2023-03-19T01:50:47;-12681.97;;;13.04;100.00
14594;BME280;7383;52.354;9.756;2023-03-19T01:53:20;-12681.88;;;13.03;100.00
14594;BME280;7383;52.354;9.756;2023-03-19T01:55:49;-12681.78;;;13.03;100.00
14594;BME280;7383;52.354;9.756;2023-03-19T01:58:17;-12680.91;;;12.98;100.00
14594;BME280;7383;52.354;9.756;2023-03-19T02:00:44;-12681.09;;;12.99;100.00
14594;BME280;7383;52.354;9.756;2023-03-19T02:03:12;-12680.56;;;12.96;100.00
14594;BME280;7383;52.354;9.756;2023-03-19T02:05:40;-12679.78;;;12.91;100.00
14594;BME280;7383;52.354;9.756;2023-03-19T02:08:11;-12679.44;;;12.89;100.00
14594;BME280;7383;52.354;9.756;2023-03-19T02:10:39;-12679.09;;;12.87;100.00
14594;BME280;7383;52.354;9.756;2023-03-19T02:13:07;-12679.09;;;12.87;100.00
14594;BME280;7383;52.354;9.756;2023-03-19T02:15:35;-12679.09;;;12.87;100.00
14594;BME280;7383;52.354;9.756;2023-03-19T02:18:01;-12677.88;;;12.80;100.00
14594;BME280;7383;52.354;9.756;2023-03-19T02:20:31;-12678.13;;;12.81;100.00
14594;BME280;7383;52.354;9.756;2023-03-19T02:23:04;-12678.31;;;12.82;100.00
14594;BME280;7383;52.354;9.756;2023-03-19T02:25:39;-12677.97;;;12.80;100.00
14594;BME280;7383;52.354;9.756;2023-03-19T02:28:12;-12677.88;;;12.80;100.00
14594;BME280;7383;52.354;9.756;2023-03-19T02:30:41;-12677.34;;;12.77;100.00
14594;BME280;7383;52.354;9.756;2023-03-19T02:33:11;-12677.25;;;12.76;100.00
14594;BME280;7383;52.354;9.756;2023-03-19T02:35:39;-12676.91;;;12.74;100.00
14594;BME280;7383;52.354;9.756;2023-03-19T02:38:05;-12676.47;;;12.72;100.00
14594;BME280;7383;52.354;9.756;2023-03-19T02:40:35;-12676.13;;;12.70;100.00
14594;BME280;7383;52.354;9.756;2023-03-19T02:43:03;-12676.38;;;12.71;100.00
14594;BME280;7383;52.354;9.756;2023-03-19T02:45:31;-12675.78;;;12.68;100.00
14594;BME280;7383;52.354;9.756;2023-03-19T02:47:57;-12675.69;;;12.67;100.00
14594;BME280;7383;52.354;9.756;2023-03-19T02:50:24;-12676.81;;;12.74;100.00
14594;BME280;7383;52.354;9.756;2023-03-19T02:52:50;-12676.66;;;12.73;100.00
14594;BME280;7383;52.354;9.756;2023-03-19T02:55:17;-12676.31;;;12.71;100.00
14594;BME280;7383;52.354;9.756;2023-03-19T02:57:43;-12676.22;;;12.70;100.00
14594;BME280;7383;52.354;9.756;2023-03-19T03:00:11;-12676.56;;;12.72;100.00
14594;BME280;7383;52.354;9.756;2023-03-19T03:02:39;-12675.78;;;12.68;100.00
14594;BME280;7383;52.354;9.756;2023-03-19T03:05:06;-12675.53;;;12.66;100.00
14594;BME280;7383;52.354;9.756;2023-03-19T03:07:33;-12674.22;;;12.59;100.00
14594;BME280;7383;52.354;9.756;2023-03-19T03:10:00;-12675.09;;;12.64;100.00
14594;BME280;7383;52.354;9.756;2023-03-19T03:12:26;-12674.66;;;12.61;100.00
14594;BME280;7383;52.354;9.756;2023-03-19T03:14:53;-12674.47;;;12.60;100.00
14594;BME280;7383;52.354;9.756;2023-03-19T03:17:19;-12673.44;;;12.54;100.00
14594;BME280;7383;52.354;9.756;2023-03-19T03:19:47;-12673.78;;;12.56;100.00
14594;BME280;7383;52.354;9.756;2023-03-19T03:22:14;-12673.88;;;12.57;100.00
14594;BME280;7383;52.354;9.756;2023-03-19T03:24:40;-12672.22;;;12.47;100.00
14594;BME280;7383;52.354;9.756;2023-03-19T03:27:07;-12673.00;;;12.52;100.00
14594;BME280;7383;52.354;9.756;2023-03-19T03:29:33;-12673.16;;;12.53;100.00
14594;BME280;7383;52.354;9.756;2023-03-19T03:32:00;-12673.34;;;12.54;100.00
14594;BME280;7383;52.354;9.756;2023-03-19T03:34:27;-12673.44;;;12.54;100.00
14594;BME280;7383;52.354;9.756;2023-03-19T03:37:10;-12673.69;;;12.56;100.00
14594;BME280;7383;52.354;9.756;2023-03-19T03:39:37;-12674.03;;;12.58;100.00
14594;BME280;7383;52.354;9.756;2023-03-19T03:42:05;-12672.91;;;12.51;100.00
14594;BME280;7383;52.354;9.756;2023-03-19T03:44:32;-12671.94;;;12.46;100.00
14594;BME280;7383;52.354;9.756;2023-03-19T03:46:58;-12672.56;;;12.49;100.00
14594;BME280;7383;52.354;9.756;2023-03-19T03:49:26;-12672.56;;;12.49;100.00
14594;BME280;7383;52.354;9.756;2023-03-19T03:51:52;-12672.38;;;12.48;100.00
14594;BME280;7383;52.354;9.756;2023-03-19T03:54:20;-12671.59;;;12.44;100.00
14594;BME280;7383;52.354;9.756;2023-03-19T03:56:46;-12671.88;;;12.45;100.00
14594;BME280;7383;52.354;9.756;2023-03-19T03:59:14;-12672.13;;;12.47;100.00
14594;BME280;7383;52.354;9.756;2023-03-19T04:01:40;-12671.50;;;12.43;100.00
14594;BME280;7383;52.354;9.756;2023-03-19T04:04:07;-12671.50;;;12.43;100.00
14594;BME280;7383;52.354;9.756;2023-03-19T04:06:33;-12671.69;;;12.44;100.00
14594;BME280;7383;52.354;9.756;2023-03-19T04:09:00;-12671.94;;;12.46;100.00
14594;BME280;7383;52.354;9.756;2023-03-19T04:11:28;-12672.38;;;12.48;100.00
14594;BME280;7383;52.354;9.756;2023-03-19T04:13:55;-12672.47;;;12.49;100.00
14594;BME280;7383;52.354;9.756;2023-03-19T04:16:22;-12672.31;;;12.48;100.00
14594;BME280;7383;52.354;9.756;2023-03-19T04:18:49;-12672.47;;;12.49;100.00
14594;BME280;7383;52.354;9.756;2023-03-19T04:21:15;-12671.88;;;12.45;100.00
14594;BME280;7383;52.354;9.756;2023-03-19T04:23:42;-12671.88;;;12.45;100.00
14594;BME280;7383;52.354;9.756;2023-03-19T04:26:08;-12670.81;;;12.39;100.00
14594;BME280;7383;52.354;9.756;2023-03-19T04:28:38;-12671.34;;;12.42;100.00
14594;BME280;7383;52.354;9.756;2023-03-19T04:31:06;-12671.16;;;12.41;100.00
14594;BME280;7383;52.354;9.756;2023-03-19T04:33:33;-12671.59;;;12.44;100.00
14594;BME280;7383;52.354;9.756;2023-03-19T04:36:00;-12671.34;;;12.42;100.00
14594;BME280;7383;52.354;9.756;2023-03-19T04:38:27;-12671.16;;;12.41;100.00
14594;BME280;7383;52.354;9.756;2023-03-19T04:40:54;-12670.91;;;12.40;100.00
14594;BME280;7383;52.354;9.756;2023-03-19T04:43:20;-12671.34;;;12.42;100.00
14594;BME280;7383;52.354;9.756;2023-03-19T04:45:49;-12671.00;;;12.40;100.00
14594;BME280;7383;52.354;9.756;2023-03-19T04:48:16;-12671.16;;;12.41;100.00
14594;BME280;7383;52.354;9.756;2023-03-19T04:50:43;-12670.22;;;12.36;100.00
14594;BME280;7383;52.354;9.756;2023-03-19T04:53:11;-12669.78;;;12.33;100.00
14594;BME280;7383;52.354;9.756;2023-03-19T04:55:38;-12670.03;;;12.34;100.00
14594;BME280;7383;52.354;9.756;2023-03-19T04:58:05;-12669.94;;;12.34;100.00
14594;BME280;7383;52.354;9.756;2023-03-19T05:00:33;-12669.94;;;12.34;100.00
14594;BME280;7383;52.354;9.756;2023-03-19T05:03:00;-12670.72;;;12.39;100.00
14594;BME280;7383;52.354;9.756;2023-03-19T05:05:27;-12670.72;;;12.39;100.00
14594;BME280;7383;52.354;9.756;2023-03-19T05:07:53;-12671.09;;;12.41;100.00
14594;BME280;7383;52.354;9.756;2023-03-19T05:10:21;-12671.50;;;12.43;100.00
14594;BME280;7383;52.354;9.756;2023-03-19T05:12:48;-12672.03;;;12.46;100.00
14594;BME280;7383;52.354;9.756;2023-03-19T05:15:14;-12671.44;;;12.43;100.00
14594;BME280;7383;52.354;9.756;2023-03-19T05:17:41;-12671.78;;;12.45;100.00
14594;BME280;7383;52.354;9.756;2023-03-19T05:20:10;-12672.13;;;12.47;100.00
14594;BME280;7383;52.354;9.756;2023-03-19T05:22:37;-12671.69;;;12.44;100.00
14594;BME280;7383;52.354;9.756;2023-03-19T05:25:04;-12672.03;;;12.46;100.00
14594;BME280;7383;52.354;9.756;2023-03-19T05:27:31;-12672.47;;;12.49;100.00
14594;BME280;7383;52.354;9.756;2023-03-19T05:29:57;-12672.31;;;12.48;100.00
14594;BME280;7383;52.354;9.756;2023-03-19T05:32:24;-12672.91;;;12.51;100.00
14594;BME280;7383;52.354;9.756;2023-03-19T05:34:50;-12673.16;;;12.53;100.00
14594;BME280;7383;52.354;9.756;2023-03-19T05:37:18;-12673.16;;;12.53;100.00
14594;BME280;7383;52.354;9.756;2023-03-19T05:39:45;-12673.00;;;12.52;100.00
14594;BME280;7383;52.354;9.756;2023-03-19T05:42:12;-12673.88;;;12.57;100.00
14594;BME280;7383;52.354;9.756;2023-03-19T05:44:39;-12674.56;;;12.61;100.00
14594;BME280;7383;52.354;9.756;2023-03-19T05:47:05;-12674.31;;;12.59;100.00
14594;BME280;7383;52.354;9.756;2023-03-19T05:49:33;-12674.22;;;12.59;100.00
14594;BME280;7383;52.354;9.756;2023-03-19T05:51:59;-12674.56;;;12.61;100.00
14594;BME280;7383;52.354;9.756;2023-03-19T05:54:27;-12674.22;;;12.59;100.00
14594;BME280;7383;52.354;9.756;2023-03-19T05:56:54;-12674.81;;;12.62;100.00
14594;BME280;7383;52.354;9.756;2023-03-19T05:59:20;-12675.00;;;12.63;100.00
14594;BME280;7383;52.354;9.756;2023-03-19T06:01:47;-12675.09;;;12.64;100.00
14594;BME280;7383;52.354;9.756;2023-03-19T06:04:13;-12675.78;;;12.68;100.00
14594;BME280;7383;52.354;9.756;2023-03-19T06:06:40;-12675.78;;;12.68;100.00
14594;BME280;7383;52.354;9.756;2023-03-19T06:09:07;-12676.91;;;12.74;100.00
14594;BME280;7383;52.354;9.756;2023-03-19T06:11:37;-12677.19;;;12.76;100.00
14594;BME280;7383;52.354;9.756;2023-03-19T06:14:04;-12677.44;;;12.77;100.00
14594;BME280;7383;52.354;9.756;2023-03-19T06:16:31;-12678.13;;;12.81;100.00
14594;BME280;7383;52.354;9.756;2023-03-19T06:18:57;-12678.41;;;12.83;100.00
14594;BME280;7383;52.354;9.756;2023-03-19T06:21:24;-12678.56;;;12.84;100.00
14594;BME280;7383;52.354;9.756;2023-03-19T06:23:53;-12678.41;;;12.83;100.00
14594;BME280;7383;52.354;9.756;2023-03-19T06:26:20;-12679.34;;;12.89;100.00
14594;BME280;7383;52.354;9.756;2023-03-19T06:28:48;-12678.31;;;12.82;100.00
14594;BME280;7383;52.354;9.756;2023-03-19T06:31:14;-12678.22;;;12.82;100.00
14594;BME280;7383;52.354;9.756;2023-03-19T06:33:41;-12678.75;;;12.85;100.00
14594;BME280;7383;52.354;9.756;2023-03-19T06:36:08;-12678.66;;;12.84;100.00
14594;BME280;7383;52.354;9.756;2023-03-19T06:38:34;-12679.69;;;12.91;100.00
14594;BME280;7383;52.354;9.756;2023-03-19T06:41:02;-12680.22;;;12.94;100.00
14594;BME280;7383;52.354;9.756;2023-03-19T06:43:28;-12680.75;;;12.97;100.00
14594;BME280;7383;52.354;9.756;2023-03-19T06:45:56;-12680.75;;;12.97;100.00
14594;BME280;7383;52.354;9.756;2023-03-19T06:48:23;-12680.47;;;12.95;100.00
14594;BME280;7383;52.354;9.756;2023-03-19T06:50:51;-12680.13;;;12.93;100.00
14594;BME280;7383;52.354;9.756;2023-03-19T06:53:19;-12680.13;;;12.93;100.00
14594;BME280;7383;52.354;9.756;2023-03-19T06:55:46;-12680.66;;;12.96;100.00
14594;BME280;7383;52.354;9.756;2023-03-19T06:58:30;-12681.63;;;13.02;100.00
14594;BME280;7383;52.354;9.756;2023-03-19T07:00:58;-12681.78;;;13.03;100.00
14594;BME280;7383;52.354;9.756;2023-03-19T07:03:24;-12682.13;;;13.05;100.00
14594;BME280;7383;52.354;9.756;2023-03-19T07:05:51;-12683.44;;;13.12;100.00
14594;BME280;7383;52.354;9.756;2023-03-19T07:08:17;-12683.97;;;13.15;100.00
14594;BME280;7383;52.354;9.756;2023-03-19T07:10:44;-12684.22;;;13.17;100.00
14594;BME280;7383;52.354;9.756;2023-03-19T07:13:10;-12684.84;;;13.20;100.00
14594;BME280;7383;52.354;9.756;2023-03-19T07:15:37;-12684.13;;;13.16;100.00
14594;BME280;7383;52.354;9.756;2023-03-19T07:18:05;-12683.97;;;13.15;100.00
14594;BME280;7383;52.354;9.756;2023-03-19T07:20:31;-12683.97;;;13.15;100.00
14594;BME280;7383;52.354;9.756;2023-03-19T07:22:58;-12683.53;;;13.13;100.00
14594;BME280;7383;52.354;9.756;2023-03-19T07:25:24;-12683.78;;;13.14;100.00
14594;BME280;7383;52.354;9.756;2023-03-19T07:27:51;-12683.88;;;13.15;100.00
14594;BME280;7383;52.354;9.756;2023-03-19T07:30:17;-12683.69;;;13.14;100.00
14594;BME280;7383;52.354;9.756;2023-03-19T07:32:44;-12683.78;;;13.14;100.00
14594;BME280;7383;52.354;9.756;2023-03-19T07:35:12;-12682.84;;;13.09;100.00
14594;BME280;7383;52.354;9.756;2023-03-19T07:37:38;-12681.69;;;13.02;100.00
14594;BME280;7383;52.354;9.756;2023-03-19T07:40:06;-12681.53;;;13.01;100.00
14594;BME280;7383;52.354;9.756;2023-03-19T07:42:32;-12681.19;;;12.99;100.00
14594;BME280;7383;52.354;9.756;2023-03-19T07:45:00;-12681.00;;;12.98;100.00
14594;BME280;7383;52.354;9.756;2023-03-19T07:47:27;-12681.09;;;12.99;100.00
14594;BME280;7383;52.354;9.756;2023-03-19T07:49:53;-12680.91;;;12.98;100.00
14594;BME280;7383;52.354;9.756;2023-03-19T07:52:21;-12681.63;;;13.02;100.00
14594;BME280;7383;52.354;9.756;2023-03-19T07:54:48;-12682.06;;;13.04;100.00
14594;BME280;7383;52.354;9.756;2023-03-19T07:57:15;-12682.84;;;13.09;100.00
14594;BME280;7383;52.354;9.756;2023-03-19T07:59:41;-12683.09;;;13.10;100.00
14594;BME280;7383;52.354;9.756;2023-03-19T08:02:09;-12683.78;;;13.14;100.00
14594;BME280;7383;52.354;9.756;2023-03-19T08:04:35;-12684.13;;;13.16;100.00
14594;BME280;7383;52.354;9.756;2023-03-19T08:07:02;-12685.53;;;13.24;100.00
14594;BME280;7383;52.354;9.756;2023-03-19T08:09:30;-12686.56;;;13.30;100.00
14594;BME280;7383;52.354;9.756;2023-03-19T08:11:57;-12687.19;;;13.34;100.00
14594;BME280;7383;52.354;9.756;2023-03-19T08:14:23;-12687.78;;;13.38;100.00
14594;BME280;7383;52.354;9.756;2023-03-19T08:16:50;-12688.75;;;13.43;100.00
14594;BME280;7383;52.354;9.756;2023-03-19T08:19:16;-12689.78;;;13.49;100.00
14594;BME280;7383;52.354;9.756;2023-03-19T08:21:42;-12691.63;;;13.60;100.00
14594;BME280;7383;52.354;9.756;2023-03-19T08:24:09;-12693.69;;;13.72;100.00
14594;BME280;7383;52.354;9.756;2023-03-19T08:26:37;-12694.75;;;13.78;100.00
14594;BME280;7383;52.354;9.756;2023-03-19T08:29:03;-12694.56;;;13.77;100.00
14594;BME280;7383;52.354;9.756;2023-03-19T08:31:30;-12694.56;;;13.77;100.00
14594;BME280;7383;52.354;9.756;2023-03-19T08:33:57;-12694.91;;;13.79;100.00
14594;BME280;7383;52.354;9.756;2023-03-19T08:36:24;-12695.00;;;13.79;100.00
14594;BME280;7383;52.354;9.756;2023-03-19T08:38:51;-12695.09;;;13.80;100.00
14594;BME280;7383;52.354;9.756;2023-03-19T08:41:19;-12695.53;;;13.82;100.00
14594;BME280;7383;52.354;9.756;2023-03-19T08:43:50;-12695.63;;;13.83;100.00
14594;BME280;7383;52.354;9.756;2023-03-19T08:46:16;-12696.47;;;13.88;100.00
14594;BME280;7383;52.354;9.756;2023-03-19T08:48:43;-12697.25;;;13.93;100.00
14594;BME280;7383;52.354;9.756;2023-03-19T08:51:10;-12697.69;;;13.95;100.00
14594;BME280;7383;52.354;9.756;2023-03-19T08:53:43;-12698.22;;;13.98;100.00
14594;BME280;7383;52.354;9.756;2023-03-19T08:56:10;-12698.31;;;13.99;100.00
14594;BME280;7383;52.354;9.756;2023-03-19T08:58:36;-12699.34;;;14.05;100.00
14594;BME280;7383;52.354;9.756;2023-03-19T09:01:07;-12699.63;;;14.06;100.00
14594;BME280;7383;52.354;9.756;2023-03-19T09:03:34;-12700.22;;;14.10;100.00
14594;BME280;7383;52.354;9.756;2023-03-19T09:06:01;-12700.91;;;14.14;100.00
14594;BME280;7383;52.354;9.756;2023-03-19T09:08:29;-12701.00;;;14.14;100.00
14594;BME280;7383;52.354;9.756;2023-03-19T09:10:56;-12701.00;;;14.14;100.00
14594;BME280;7383;52.354;9.756;2023-03-19T09:13:23;-12701.25;;;14.16;100.00
14594;BME280;7383;52.354;9.756;2023-03-19T09:16:11;-12701.78;;;14.19;100.00
14594;BME280;7383;52.354;9.756;2023-03-19T09:19:21;-12703.59;;;14.29;100.00
14594;BME280;7383;52.354;9.756;2023-03-19T09:25:24;-12708.28;;;14.57;100.00
14594;BME280;7383;52.354;9.756;2023-03-19T09:28:04;-12710.28;;;14.68;100.00
14594;BME280;7383;52.354;9.756;2023-03-19T09:30:55;-12712.19;;;14.79;100.00
14594;BME280;7383;52.354;9.756;2023-03-19T10:26:33;-12740.53;;;16.45;100.00
14594;BME280;7383;52.354;9.756;2023-03-19T10:29:04;-12741.75;;;16.52;100.00
14594;BME280;7383;52.354;9.756;2023-03-19T10:31:47;-12743.13;;;16.60;100.00
14594;BME280;7383;52.354;9.756;2023-03-19T10:34:29;-12741.22;;;16.49;100.00
14594;BME280;7383;52.354;9.756;2023-03-19T10:37:04;-12741.81;;;16.52;100.00
14594;BME280;7383;52.354;9.756;2023-03-19T10:39:34;-12741.38;;;16.50;100.00
14594;BME280;7383;52.354;9.756;2023-03-19T10:42:12;-12741.66;;;16.51;100.00
14594;BME280;7383;52.354;9.756;2023-03-19T10:44:48;-12742.78;;;16.58;100.00
14594;BME280;7383;52.354;9.756;2023-03-19T10:47:16;-12743.81;;;16.64;100.00
14594;BME280;7383;52.354;9.756;2023-03-19T10:49:44;-12745.91;;;16.76;100.00
14594;BME280;7383;52.354;9.756;2023-03-19T10:52:18;-12747.00;;;16.83;100.00
14594;BME280;7383;52.354;9.756;2023-03-19T10:55:05;-12748.06;;;16.89;100.00
14594;BME280;7383;52.354;9.756;2023-03-19T10:57:40;-12747.00;;;16.83;100.00
14594;BME280;7383;52.354;9.756;2023-03-19T11:00:15;-12746.94;;;16.82;100.00
14594;BME280;7383;52.354;9.756;2023-03-19T11:02:53;-12747.44;;;16.85;100.00
14594;BME280;7383;52.354;9.756;2023-03-19T11:05:25;-12748.06;;;16.89;100.00
14594;BME280;7383;52.354;9.756;2023-03-19T11:07:55;-12749.34;;;16.96;100.00
14594;BME280;7383;52.354;9.756;2023-03-19T11:10:24;-12749.97;;;17.00;100.00
14594;BME280;7383;52.354;9.756;2023-03-19T11:12:54;-12750.13;;;17.01;100.00
14594;BME280;7383;52.354;9.756;2023-03-19T11:15:27;-12750.38;;;17.02;100.00
14594;BME280;7383;52.354;9.756;2023-03-19T11:17:57;-12749.53;;;16.97;100.00
14594;BME280;7383;52.354;9.756;2023-03-19T11:20:28;-12749.53;;;16.97;100.00
14594;BME280;7383;52.354;9.756;2023-03-19T11:23:00;-12751.00;;;17.06;100.00
14594;BME280;7383;52.354;9.756;2023-03-19T11:27:03;-12754.34;;;17.26;100.00
14594;BME280;7383;52.354;9.756;2023-03-19T11:42:39;-12763.78;;;17.81;100.00
14594;BME280;7383;52.354;9.756;2023-03-19T11:45:21;-12764.72;;;17.86;100.00
14594;BME280;7383;52.354;9.756;2023-03-19T11:47:58;-12766.63;;;17.97;100.00
14594;BME280;7383;52.354;9.756;2023-03-19T12:35:56;-12793.84;;;19.57;100.00
14594;BME280;7383;52.354;9.756;2023-03-19T12:38:33;-12800.91;;;19.98;100.00
14594;BME280;7383;52.354;9.756;2023-03-19T12:41:38;-12808.03;;;20.40;100.00
14594;BME280;7383;52.354;9.756;2023-03-19T12:55:04;-12844.06;;;22.52;100.00
14594;BME280;7383;52.354;9.756;2023-03-19T13:09:27;-12792.22;;;19.47;100.00
14594;BME280;7383;52.354;9.756;2023-03-19T13:12:17;-12787.91;;;19.22;100.00
14594;BME280;7383;52.354;9.756;2023-03-19T13:14:52;-12783.19;;;18.94;100.00
14594;BME280;7383;52.354;9.756;2023-03-19T13:17:25;-12780.16;;;18.77;100.00
14594;BME280;7383;52.354;9.756;2023-03-19T13:20:00;-12777.31;;;18.60;100.00
14594;BME280;7383;52.354;9.756;2023-03-19T13:22:35;-12774.81;;;18.45;100.00
14594;BME280;7383;52.354;9.756;2023-03-19T13:25:04;-12773.09;;;18.35;100.00
14594;BME280;7383;52.354;9.756;2023-03-19T13:27:34;-12772.06;;;18.29;100.00
14594;BME280;7383;52.354;9.756;2023-03-19T13:30:16;-12772.84;;;18.34;100.00
14594;BME280;7383;52.354;9.756;2023-03-19T13:32:47;-12773.34;;;18.37;100.00
14594;BME280;7383;52.354;9.756;2023-03-19T13:38:16;-12776.47;;;18.55;100.00
14594;BME280;7383;52.354;9.756;2023-03-19T13:40:46;-12777.75;;;18.62;100.00
14594;BME280;7383;52.354;9.756;2023-03-19T13:46:34;-12788.88;;;19.28;100.00
14594;BME280;7383;52.354;9.756;2023-03-19T13:49:09;-12791.09;;;19.41;100.00
14594;BME280;7383;52.354;9.756;2023-03-19T13:51:49;-12804.69;;;20.21;100.00
14594;BME280;7383;52.354;9.756;2023-03-19T13:54:17;-12813.72;;;20.74;100.00
14594;BME280;7383;52.354;9.756;2023-03-19T13:59:53;-12818.84;;;21.04;100.00
14594;BME280;7383;52.354;9.756;2023-03-19T14:02:51;-12814.13;;;20.76;100.00
14594;BME280;7383;52.354;9.756;2023-03-19T14:05:19;-12809.94;;;20.51;100.00
14594;BME280;7383;52.354;9.756;2023-03-19T14:07:50;-12812.75;;;20.68;100.00
14594;BME280;7383;52.354;9.756;2023-03-19T14:10:22;-12825.47;;;21.43;100.00
14594;BME280;7383;52.354;9.756;2023-03-19T14:12:51;-12822.03;;;21.23;100.00
14594;BME280;7383;52.354;9.756;2023-03-19T14:15:28;-12825.47;;;21.43;100.00
14594;BME280;7383;52.354;9.756;2023-03-19T14:17:58;-12849.34;;;22.84;100.00
14594;BME280;7383;52.354;9.756;2023-03-19T14:20:27;-12893.81;;;25.47;100.00
14594;BME280;7383;52.354;9.756;2023-03-19T14:23:09;-12945.31;;;28.54;100.00
14594;BME280;7383;52.354;9.756;2023-03-19T14:26:00;-12983.72;;;30.84;100.00
14594;BME280;7383;52.354;9.756;2023-03-19T14:28:34;65156.72;;;-143.30;100.00
14594;BME280;7383;52.354;9.756;2023-03-19T14:31:04;65156.72;;;-143.30;100.00
14594;BME280;7383;52.354;9.756;2023-03-19T14:33:41;65156.72;;;-143.30;100.00
14594;BME280;7383;52.354;9.756;2023-03-19T14:36:12;65156.72;;;-143.30;100.00
14594;BME280;7383;52.354;9.756;2023-03-19T14:38:47;65156.72;;;-143.30;100.00
14594;BME280;7383;52.354;9.756;2023-03-19T14:41:18;65156.72;;;-143.30;100.00
14594;BME280;7383;52.354;9.756;2023-03-19T14:43:59;-12920.91;;;27.08;100.00
14594;BME280;7383;52.354;9.756;2023-03-19T14:46:43;-12946.91;;;28.63;100.00
14594;BME280;7383;52.354;9.756;2023-03-19T14:49:41;-12947.44;;;28.66;100.00
14594;BME280;7383;52.354;9.756;2023-03-19T14:52:14;-12943.72;;;28.44;100.00
14594;BME280;7383;52.354;9.756;2023-03-19T14:54:46;-12973.00;;;30.19;100.00
14594;BME280;7383;52.354;9.756;2023-03-19T14:57:16;65156.72;;;-143.30;100.00
14594;BME280;7383;52.354;9.756;2023-03-19T14:59:43;-12955.72;;;29.16;100.00
14594;BME280;7383;52.354;9.756;2023-03-19T15:02:21;65156.72;;;-143.30;100.00
14594;BME280;7383;52.354;9.756;2023-03-19T15:04:53;-12955.72;;;29.16;100.00
14594;BME280;7383;52.354;9.756;2023-03-19T15:07:24;-12900.38;;;25.86;100.00
14594;BME280;7383;52.354;9.756;2023-03-19T15:09:54;-12882.41;;;24.79;100.00
14594;BME280;7383;52.354;9.756;2023-03-19T15:12:33;-12869.34;;;24.02;100.00
14594;BME280;7383;52.354;9.756;2023-03-19T15:15:20;-12859.38;;;23.43;100.00
14594;BME280;7383;52.354;9.756;2023-03-19T15:17:58;-12850.38;;;22.90;100.00
14594;BME280;7383;52.354;9.756;2023-03-19T15:20:26;-12843.53;;;22.49;100.00
14594;BME280;7383;52.354;9.756;2023-03-19T15:23:00;-12835.84;;;22.04;100.00
14594;BME280;7383;52.354;9.756;2023-03-19T15:25:31;-12832.16;;;21.82;100.00
14594;BME280;7383;52.354;9.756;2023-03-19T15:28:06;-12828.72;;;21.62;100.00
14594;BME280;7383;52.354;9.756;2023-03-19T15:30:33;-12826.75;;;21.50;100.00
14594;BME280;7383;52.354;9.756;2023-03-19T15:33:01;-12825.63;;;21.44;100.00